Time;durP1;ratioP1;P1;durP2;ratioP2;P2;SDS_P1;SDS_P2;PMS_P1;PMS_P2;Temp;Humidity;BMP_temperature;BMP_pressure;BME280_temperature;BME280_humidity;BME280_pressure;Samples;Min_cycle;Max_cycle;Signal;HPM_P1;HPM_P2
2023/01/01 00:01:13;;;;;;;0.50;0.50;;;14.20;99.90;;;;;;4944697;28;20052;-82
2023/01/01 00:03:39;;;;;;;0.50;0.50;;;14.20;99.90;;;;;;4956353;28;20507;-81
2023/01/01 00:06:12;;;;;;;0.50;0.50;;;14.10;99.90;;;;;;4929371;28;20053;-82
2023/01/01 00:08:39;;;;;;;0.50;0.50;;;14.00;99.90;;;;;;4947820;28;20060;-82
2023/01/01 00:11:07;;;;;;;0.40;0.40;;;13.90;99.90;;;;;;4944393;28;20161;-81
2023/01/01 00:13:34;;;;;;;0.50;0.50;;;13.90;99.90;;;;;;4951699;28;20049;-81
2023/01/01 00:16:05;;;;;;;0.50;0.50;;;13.90;99.90;;;;;;4945167;28;20136;-82
2023/01/01 00:18:31;;;;;;;0.82;0.82;;;13.90;99.90;;;;;;4942415;28;20434;-81
2023/01/01 00:21:12;;;;;;;0.50;0.50;;;13.90;99.90;;;;;;4949117;28;20222;-83
2023/01/01 00:23:38;;;;;;;0.40;0.40;;;13.90;99.90;;;;;;4946861;28;20053;-81
2023/01/01 00:26:13;;;;;;;0.50;0.50;;;13.90;99.90;;;;;;4942946;28;20060;-81
2023/01/01 00:28:39;;;;;;;0.50;0.50;;;14.00;99.90;;;;;;4951888;28;20048;-81
2023/01/01 00:31:07;;;;;;;0.50;0.50;;;14.00;99.90;;;;;;4948547;28;20395;-82
2023/01/01 00:33:33;;;;;;;0.50;0.50;;;14.00;99.90;;;;;;4958944;28;20142;-81
2023/01/01 00:36:08;;;;;;;0.50;0.50;;;14.00;99.90;;;;;;4936702;28;20446;-82
2023/01/01 00:38:35;;;;;;;0.50;0.50;;;14.10;99.90;;;;;;4951710;28;20079;-80
2023/01/01 00:41:01;;;;;;;0.50;0.50;;;14.20;99.90;;;;;;4949092;28;20069;-82
2023/01/01 00:43:27;;;;;;;0.50;0.50;;;14.10;99.90;;;;;;4941826;28;20072;-81
2023/01/01 00:45:53;;;;;;;0.50;0.50;;;14.00;99.90;;;;;;4950987;28;20046;-81
2023/01/01 00:48:20;;;;;;;0.75;0.75;;;14.00;99.90;;;;;;4945778;28;20068;-80
2023/01/01 00:50:52;;;;;;;0.50;0.50;;;13.90;99.90;;;;;;4951371;28;21038;-81
2023/01/01 00:53:19;;;;;;;0.50;0.50;;;14.00;99.90;;;;;;4951542;28;20632;-81
2023/01/01 00:55:47;;;;;;;0.50;0.50;;;13.90;99.90;;;;;;4946238;28;20055;-82
2023/01/01 00:58:14;;;;;;;0.50;0.50;;;13.90;99.90;;;;;;4941123;28;20601;-80
2023/01/01 01:00:41;;;;;;;0.50;0.50;;;13.90;99.90;;;;;;4940847;28;20490;-81
2023/01/01 01:03:07;;;;;;;0.50;0.50;;;13.70;99.90;;;;;;4948583;28;20062;-81
2023/01/01 01:05:36;;;;;;;0.50;0.50;;;13.80;99.90;;;;;;4921785;28;20138;-82
2023/01/01 01:08:02;;;;;;;0.50;0.50;;;13.90;99.90;;;;;;4943381;28;20154;-82
2023/01/01 01:10:28;;;;;;;0.50;0.50;;;13.80;99.90;;;;;;4943619;28;20053;-81
2023/01/01 01:12:54;;;;;;;0.40;0.40;;;13.90;99.90;;;;;;4948140;28;20190;-82
2023/01/01 01:15:20;;;;;;;0.50;0.50;;;13.90;99.90;;;;;;4948170;28;20088;-82
2023/01/01 01:17:46;;;;;;;0.50;0.50;;;13.90;99.90;;;;;;4946449;28;20912;-82
2023/01/01 01:20:13;;;;;;;0.50;0.50;;;14.00;99.90;;;;;;4932624;28;20049;-81
2023/01/01 01:22:39;;;;;;;0.40;0.40;;;13.90;99.90;;;;;;4954676;28;20041;-82
2023/01/01 01:25:06;;;;;;;0.50;0.50;;;14.00;99.90;;;;;;4947926;28;20905;-81
2023/01/01 01:27:32;;;;;;;0.50;0.50;;;14.00;99.90;;;;;;4942156;28;20459;-81
2023/01/01 01:29:58;;;;;;;0.50;0.50;;;14.10;99.90;;;;;;4945217;28;20045;-82
2023/01/01 01:32:24;;;;;;;0.50;0.50;;;14.10;99.90;;;;;;4942404;28;20549;-81
2023/01/01 01:34:49;;;;;;;0.50;0.50;;;14.20;99.90;;;;;;4940446;28;20041;-81
2023/01/01 01:37:15;;;;;;;0.50;0.50;;;14.20;99.90;;;;;;4947320;28;20049;-81
2023/01/01 01:39:41;;;;;;;0.50;0.50;;;14.40;99.90;;;;;;4950302;28;20523;-80
2023/01/01 01:42:15;;;;;;;0.50;0.50;;;14.40;99.90;;;;;;4936531;28;20064;-81
2023/01/01 01:44:44;;;;;;;;;;;14.40;99.90;;;;;;4937264;28;20087;-82
2023/01/01 01:47:19;;;;;;;0.73;0.73;;;14.50;99.90;;;;;;4942871;28;20484;-82
2023/01/01 01:49:45;;;;;;;0.50;0.50;;;14.30;99.90;;;;;;4925271;28;20382;-81
2023/01/01 01:52:11;;;;;;;0.50;0.50;;;14.10;99.90;;;;;;4953773;28;20380;-82
2023/01/01 01:54:38;;;;;;;0.50;0.50;;;14.00;99.90;;;;;;4945683;28;20496;-82
2023/01/01 01:57:08;;;;;;;0.50;0.50;;;14.10;99.90;;;;;;4953458;28;20342;-82
2023/01/01 01:59:41;;;;;;;0.50;0.50;;;14.00;99.90;;;;;;4942678;28;20691;-81
2023/01/01 02:02:14;;;;;;;0.50;0.50;;;13.90;99.90;;;;;;4940785;28;20949;-82
2023/01/01 02:04:41;;;;;;;0.50;0.50;;;13.90;99.90;;;;;;4939853;28;20465;-82
2023/01/01 02:07:07;;;;;;;0.50;0.50;;;13.80;99.90;;;;;;4943236;28;20460;-82
2023/01/01 02:09:33;;;;;;;0.50;0.50;;;13.80;99.90;;;;;;4909544;28;20843;-81
2023/01/01 02:11:59;;;;;;;0.50;0.50;;;13.80;99.90;;;;;;4933229;28;20076;-81
2023/01/01 02:14:25;;;;;;;0.50;0.50;;;13.80;99.90;;;;;;4943644;28;20053;-81
2023/01/01 02:16:59;;;;;;;0.50;0.50;;;13.80;99.90;;;;;;4911731;28;20084;-80
2023/01/01 02:19:49;;;;;;;0.50;0.50;;;13.80;99.90;;;;;;4947504;28;20627;-83
2023/01/01 02:22:34;;;;;;;0.50;0.50;;;13.80;99.90;;;;;;4946192;28;20083;-83
2023/01/01 02:25:19;;;;;;;0.50;0.50;;;13.80;99.90;;;;;;4931374;28;20061;-83
2023/01/01 02:28:18;;;;;;;0.50;0.50;;;13.70;99.90;;;;;;4932694;28;20072;-82
2023/01/01 02:30:46;;;;;;;0.50;0.50;;;13.70;99.90;;;;;;4936797;28;21041;-81
2023/01/01 02:33:17;;;;;;;0.50;0.50;;;13.70;99.90;;;;;;4938580;28;20575;-82
2023/01/01 02:35:57;;;;;;;0.50;0.50;;;13.70;99.90;;;;;;4944739;28;20048;-81
2023/01/01 02:38:43;;;;;;;0.50;0.50;;;13.80;99.90;;;;;;4941400;28;21090;-81
2023/01/01 02:41:22;;;;;;;0.50;0.50;;;14.00;99.90;;;;;;4945983;28;20056;-82
2023/01/01 02:43:48;;;;;;;0.50;0.50;;;14.00;99.90;;;;;;4942061;28;20054;-80
2023/01/01 02:46:14;;;;;;;0.50;0.50;;;14.00;99.90;;;;;;4936223;28;20805;-81
2023/01/01 02:48:48;;;;;;;0.50;0.50;;;14.00;99.90;;;;;;4942994;28;20037;-80
2023/01/01 02:51:33;;;;;;;0.50;0.50;;;14.10;99.90;;;;;;4937764;28;20049;-82
2023/01/01 02:54:05;;;;;;;0.50;0.50;;;14.10;99.90;;;;;;4934116;28;20263;-80
2023/01/01 02:56:40;;;;;;;0.50;0.50;;;14.20;99.90;;;;;;4938095;28;20068;-82
2023/01/01 03:02:53;;;;;;;0.40;0.40;;;13.90;99.90;;;;;;4922142;28;20206;-81
2023/01/01 03:05:32;;;;;;;0.40;0.40;;;14.00;99.90;;;;;;4944786;28;20541;-81
2023/01/01 03:08:16;;;;;;;0.45;0.45;;;14.00;99.90;;;;;;4939819;28;20804;-81
2023/01/01 03:10:50;;;;;;;0.50;0.50;;;14.10;99.90;;;;;;4944771;28;20127;-81
2023/01/01 03:13:31;;;;;;;0.50;0.50;;;14.10;99.90;;;;;;4943543;28;20070;-80
2023/01/01 03:16:02;;;;;;;0.50;0.50;;;14.20;99.90;;;;;;4932061;28;20065;-80
2023/01/01 03:18:38;;;;;;;0.50;0.50;;;14.20;99.90;;;;;;4950390;28;20056;-81
2023/01/01 03:21:06;;;;;;;0.50;0.50;;;14.10;99.90;;;;;;4947413;28;20977;-82
2023/01/01 03:23:39;;;;;;;0.50;0.50;;;14.10;99.90;;;;;;4942376;28;20048;-81
2023/01/01 03:26:09;;;;;;;0.50;0.50;;;14.10;99.90;;;;;;4940665;28;20175;-80
2023/01/01 03:28:49;;;;;;;0.50;0.50;;;14.10;99.90;;;;;;4944379;28;20877;-81
2023/01/01 03:31:19;;;;;;;0.50;0.50;;;14.20;99.90;;;;;;4953599;28;20402;-81
2023/01/01 03:33:51;;;;;;;0.50;0.50;;;14.20;99.90;;;;;;4953531;28;20045;-80
2023/01/01 03:36:28;;;;;;;0.40;0.40;;;14.20;99.90;;;;;;4940804;28;20060;-81
2023/01/01 03:38:59;;;;;;;0.50;0.50;;;14.40;99.90;;;;;;4948907;28;20065;-81
2023/01/01 03:41:45;;;;;;;0.50;0.50;;;14.30;99.90;;;;;;4961930;28;20057;-81
2023/01/01 03:44:22;;;;;;;0.50;0.50;;;14.40;99.90;;;;;;4961818;28;20049;-79
2023/01/01 03:46:48;;;;;;;0.50;0.50;;;14.40;99.90;;;;;;4955832;28;20080;-81
2023/01/01 03:49:15;;;;;;;0.50;0.50;;;14.40;99.90;;;;;;4951469;28;20049;-79
2023/01/01 03:51:44;;;;;;;0.50;0.50;;;14.40;99.90;;;;;;4953371;28;20058;-79
2023/01/01 03:54:19;;;;;;;0.40;0.40;;;14.50;99.90;;;;;;4960230;28;20517;-80
2023/01/01 03:56:51;;;;;;;0.50;0.50;;;14.50;99.90;;;;;;4950681;28;20052;-81
2023/01/01 03:59:26;;;;;;;0.40;0.40;;;14.60;99.90;;;;;;4948720;28;20055;-82
2023/01/01 04:01:57;;;;;;;0.40;0.40;;;14.60;99.90;;;;;;4955708;28;20046;-81
2023/01/01 04:04:25;;;;;;;0.50;0.50;;;14.60;99.90;;;;;;4965158;28;20053;-81
2023/01/01 04:06:52;;;;;;;0.40;0.40;;;14.60;99.90;;;;;;4943931;28;20130;-80
2023/01/01 04:09:23;;;;;;;0.40;0.40;;;14.60;99.90;;;;;;4944663;28;20057;-81
2023/01/01 04:12:02;;;;;;;0.50;0.50;;;14.60;99.90;;;;;;4936144;28;20132;-80
2023/01/01 04:14:32;;;;;;;0.50;0.50;;;14.70;99.90;;;;;;4945736;28;20062;-82
2023/01/01 04:16:58;;;;;;;0.50;0.50;;;14.60;99.90;;;;;;4945036;28;20517;-83
2023/01/01 04:19:24;;;;;;;0.50;0.50;;;14.60;99.90;;;;;;4948535;28;20278;-80
2023/01/01 04:21:50;;;;;;;0.50;0.50;;;14.60;99.90;;;;;;4944882;28;20129;-81
2023/01/01 04:24:16;;;;;;;0.50;0.50;;;14.70;99.90;;;;;;4945382;28;20170;-81
2023/01/01 04:26:43;;;;;;;0.50;0.50;;;14.60;99.90;;;;;;4947096;28;20204;-80
2023/01/01 04:29:09;;;;;;;0.40;0.40;;;14.60;99.90;;;;;;4931315;28;20776;-80
2023/01/01 04:31:35;;;;;;;0.50;0.50;;;14.50;99.90;;;;;;4945609;28;20052;-80
2023/01/01 04:34:01;;;;;;;0.40;0.40;;;14.60;99.90;;;;;;4944196;28;20119;-81
2023/01/01 04:36:27;;;;;;;0.40;0.40;;;14.60;99.90;;;;;;4956425;28;20091;-80
2023/01/01 04:38:53;;;;;;;0.40;0.40;;;14.50;99.90;;;;;;4956669;28;20130;-80
2023/01/01 04:41:19;;;;;;;0.40;0.40;;;14.60;99.90;;;;;;4951797;28;20502;-80
2023/01/01 04:43:52;;;;;;;0.50;0.50;;;14.50;99.90;;;;;;4952226;28;20546;-79
2023/01/01 04:46:19;;;;;;;0.50;0.50;;;14.50;99.90;;;;;;4927501;28;20503;-80
2023/01/01 04:48:45;;;;;;;0.50;0.50;;;14.60;99.90;;;;;;4944344;28;20049;-80
2023/01/01 04:51:13;;;;;;;0.50;0.50;;;14.60;99.90;;;;;;4944383;28;20049;-80
2023/01/01 04:53:39;;;;;;;0.50;0.50;;;14.50;99.90;;;;;;4947192;28;20065;-79
2023/01/01 04:56:13;;;;;;;0.50;0.50;;;14.60;99.90;;;;;;4942822;28;20115;-82
2023/01/01 04:58:40;;;;;;;0.50;0.50;;;14.70;99.90;;;;;;4946982;28;20266;-81
2023/01/01 05:01:07;;;;;;;0.50;0.50;;;14.70;99.90;;;;;;4942687;28;20661;-80
2023/01/01 05:03:33;;;;;;;0.50;0.50;;;14.70;99.90;;;;;;4950611;28;20056;-81
2023/01/01 05:06:10;;;;;;;0.50;0.50;;;14.70;99.90;;;;;;4943761;28;20894;-81
2023/01/01 05:08:38;;;;;;;0.50;0.50;;;14.70;99.90;;;;;;4946767;28;20495;-82
2023/01/01 05:11:08;;;;;;;0.50;0.50;;;14.70;99.90;;;;;;4968794;28;20045;-79
2023/01/01 05:13:35;;;;;;;0.50;0.50;;;14.60;99.90;;;;;;4942969;28;20049;-81
2023/01/01 05:16:02;;;;;;;0.50;0.50;;;14.50;99.90;;;;;;4950639;28;20075;-83
2023/01/01 05:18:28;;;;;;;0.50;0.50;;;14.50;99.90;;;;;;4945659;28;20053;-81
2023/01/01 05:21:02;;;;;;;0.50;0.50;;;14.40;99.90;;;;;;4949883;28;20044;-80
2023/01/01 05:23:29;;;;;;;0.50;0.50;;;14.40;99.90;;;;;;4940670;28;20045;-82
2023/01/01 05:25:54;;;;;;;0.50;0.50;;;14.40;99.90;;;;;;4956019;28;20755;-82
2023/01/01 05:28:22;;;;;;;0.50;0.50;;;14.40;99.90;;;;;;4947834;28;20174;-85
2023/01/01 05:30:51;;;;;;;0.50;0.50;;;14.40;99.90;;;;;;4929483;28;20144;-82
2023/01/01 05:33:18;;;;;;;0.50;0.50;;;14.40;99.90;;;;;;4940565;28;20059;-81
2023/01/01 05:35:44;;;;;;;0.50;0.50;;;14.40;99.90;;;;;;4944121;28;20053;-80
2023/01/01 05:38:11;;;;;;;0.50;0.50;;;14.40;99.90;;;;;;4942607;28;21311;-84
2023/01/01 05:40:38;;;;;;;0.50;0.50;;;14.30;99.90;;;;;;4947372;28;20220;-81
2023/01/01 05:43:06;;;;;;;0.50;0.50;;;14.20;99.90;;;;;;4940377;28;20052;-80
2023/01/01 05:45:32;;;;;;;0.50;0.50;;;14.20;99.90;;;;;;4956903;28;20083;-81
2023/01/01 05:47:58;;;;;;;0.50;0.50;;;14.10;99.90;;;;;;4939216;28;20061;-81
2023/01/01 05:50:24;;;;;;;0.50;0.50;;;14.00;99.90;;;;;;4949262;28;20444;-81
2023/01/01 05:52:50;;;;;;;0.50;0.50;;;14.00;99.90;;;;;;4942771;28;20041;-79
2023/01/01 05:55:16;;;;;;;0.40;0.40;;;13.90;99.90;;;;;;4952074;28;20045;-80
2023/01/01 05:57:41;;;;;;;0.50;0.50;;;14.00;99.90;;;;;;4953007;28;20084;-81
2023/01/01 06:00:07;;;;;;;0.40;0.40;;;13.80;99.90;;;;;;4944906;28;20540;-79
2023/01/01 06:02:33;;;;;;;0.50;0.50;;;13.80;99.90;;;;;;4943593;28;22113;-80
2023/01/01 06:04:59;;;;;;;0.50;0.50;;;13.80;99.90;;;;;;4953357;28;20041;-80
2023/01/01 06:07:25;;;;;;;0.50;0.50;;;13.70;99.90;;;;;;4927955;28;20164;-80
2023/01/01 06:09:51;;;;;;;0.50;0.50;;;13.70;99.90;;;;;;4946141;28;20045;-80
2023/01/01 06:12:17;;;;;;;0.50;0.50;;;13.60;99.90;;;;;;4932459;28;20187;-79
2023/01/01 06:14:42;;;;;;;0.50;0.50;;;13.50;99.90;;;;;;4953966;28;20045;-80
2023/01/01 06:17:10;;;;;;;0.50;0.50;;;13.60;99.90;;;;;;4946788;28;20092;-81
2023/01/01 06:19:35;;;;;;;0.50;0.50;;;13.50;99.90;;;;;;4946895;28;20048;-79
2023/01/01 06:22:01;;;;;;;0.50;0.50;;;13.50;99.90;;;;;;4940153;28;20075;-80
2023/01/01 06:24:27;;;;;;;0.50;0.50;;;13.60;99.90;;;;;;4943689;28;20045;-80
2023/01/01 06:26:53;;;;;;;0.50;0.50;;;13.50;99.90;;;;;;4942695;28;20483;-79
2023/01/01 06:29:19;;;;;;;0.57;0.57;;;13.50;99.90;;;;;;4948319;28;20049;-80
2023/01/01 06:31:45;;;;;;;0.50;0.50;;;13.50;99.90;;;;;;4943659;28;20503;-80
2023/01/01 06:34:10;;;;;;;0.50;0.50;;;13.50;99.90;;;;;;4930382;28;20057;-79
2023/01/01 06:36:36;;;;;;;0.50;0.50;;;13.40;99.90;;;;;;4943756;28;20784;-79
2023/01/01 06:39:02;;;;;;;0.40;0.40;;;13.50;99.90;;;;;;4937502;28;20049;-80
2023/01/01 06:41:29;;;;;;;0.50;0.50;;;13.50;99.90;;;;;;4959644;28;20060;-80
2023/01/01 06:43:57;;;;;;;0.50;0.50;;;13.50;99.90;;;;;;4944481;28;20622;-78
2023/01/01 06:46:26;;;;;;;0.50;0.50;;;13.40;99.90;;;;;;4948636;28;20626;-80
2023/01/01 06:48:54;;;;;;;0.50;0.50;;;13.40;99.90;;;;;;4940081;28;20526;-79
2023/01/01 06:51:29;;;;;;;0.50;0.50;;;13.40;99.90;;;;;;4939012;28;20929;-80
2023/01/01 06:53:57;;;;;;;0.50;0.50;;;13.40;99.90;;;;;;4925927;28;20057;-81
2023/01/01 06:56:23;;;;;;;0.50;0.50;;;13.40;99.90;;;;;;4941716;28;20561;-80
2023/01/01 06:58:49;;;;;;;0.50;0.50;;;13.30;99.90;;;;;;4936673;28;20037;-80
2023/01/01 07:01:20;;;;;;;0.50;0.50;;;13.40;99.90;;;;;;4945169;28;20074;-80
2023/01/01 07:04:01;;;;;;;0.50;0.50;;;13.40;99.90;;;;;;4930403;28;20061;-82
2023/01/01 07:06:29;;;;;;;0.50;0.50;;;13.40;99.90;;;;;;4941756;28;20148;-79
2023/01/01 07:08:56;;;;;;;0.50;0.50;;;13.40;99.90;;;;;;4952483;28;20058;-80
2023/01/01 07:11:22;;;;;;;0.50;0.50;;;13.40;99.90;;;;;;4945111;28;22562;-80
2023/01/01 07:13:48;;;;;;;0.50;0.50;;;13.30;99.90;;;;;;4947311;28;20873;-83
2023/01/01 07:16:14;;;;;;;0.50;0.50;;;13.40;99.90;;;;;;4944311;28;20046;-80
2023/01/01 07:18:40;;;;;;;0.50;0.50;;;13.40;99.90;;;;;;4953244;28;20079;-81
2023/01/01 07:21:22;;;;;;;0.50;0.50;;;13.30;99.90;;;;;;4946472;28;20049;-79
2023/01/01 07:23:48;;;;;;;0.50;0.50;;;13.30;99.90;;;;;;4949640;28;20892;-80
2023/01/01 07:26:13;;;;;;;0.50;0.50;;;13.30;99.90;;;;;;4951904;28;20053;-80
2023/01/01 07:28:39;;;;;;;0.50;0.50;;;13.30;99.90;;;;;;4953141;28;20725;-80
2023/01/01 07:31:05;;;;;;;0.50;0.50;;;13.40;99.90;;;;;;4945878;28;20068;-80
2023/01/01 07:33:31;;;;;;;0.50;0.50;;;13.40;99.90;;;;;;4952190;28;20528;-80
2023/01/01 07:35:57;;;;;;;0.50;0.50;;;13.30;99.90;;;;;;4946858;28;20180;-79
2023/01/01 07:38:23;;;;;;;0.50;0.50;;;13.30;99.90;;;;;;4952456;28;20053;-79
2023/01/01 07:40:49;;;;;;;0.50;0.50;;;13.30;99.90;;;;;;4945031;28;20484;-80
2023/01/01 07:43:15;;;;;;;0.50;0.50;;;13.20;99.90;;;;;;4942162;28;20136;-80
2023/01/01 07:45:40;;;;;;;0.50;0.50;;;13.30;99.90;;;;;;4950721;28;20766;-79
2023/01/01 07:48:12;;;;;;;0.50;0.50;;;13.30;99.90;;;;;;4939647;28;20053;-79
2023/01/01 07:50:38;;;;;;;0.50;0.50;;;13.20;99.90;;;;;;4943808;28;20529;-82
2023/01/01 07:53:04;;;;;;;0.50;0.50;;;13.20;99.90;;;;;;4941899;28;20531;-79
2023/01/01 07:55:29;;;;;;;0.40;0.40;;;13.20;99.90;;;;;;4945026;28;20049;-81
2023/01/01 07:57:55;;;;;;;0.50;0.50;;;13.30;99.90;;;;;;4945786;28;20049;-81
2023/01/01 08:00:22;;;;;;;0.50;0.50;;;13.20;99.90;;;;;;4940228;28;20461;-82
2023/01/01 08:02:50;;;;;;;0.50;0.50;;;13.10;99.90;;;;;;4956704;28;20229;-81
2023/01/01 08:05:16;;;;;;;0.50;0.50;;;13.10;99.90;;;;;;4943376;28;21712;-80
2023/01/01 08:07:51;;;;;;;0.50;0.50;;;13.10;99.90;;;;;;4946848;28;20329;-80
2023/01/01 08:10:19;;;;;;;0.50;0.50;;;13.10;99.90;;;;;;4940700;28;20048;-79
2023/01/01 08:12:45;;;;;;;0.50;0.50;;;13.10;99.90;;;;;;4942988;28;20070;-80
2023/01/01 08:15:11;;;;;;;0.40;0.40;;;13.10;99.90;;;;;;4943214;28;20786;-81
2023/01/01 08:17:37;;;;;;;0.50;0.50;;;13.00;99.90;;;;;;4945189;28;20137;-79
2023/01/01 08:20:04;;;;;;;0.50;0.50;;;13.00;99.90;;;;;;4932771;28;20804;-78
2023/01/01 08:22:30;;;;;;;0.50;0.50;;;13.00;99.90;;;;;;4952415;28;20052;-81
2023/01/01 08:24:56;;;;;;;0.50;0.50;;;12.90;99.90;;;;;;4945334;28;20049;-80
2023/01/01 08:27:22;;;;;;;0.50;0.50;;;12.90;99.90;;;;;;4951752;28;20053;-79
2023/01/01 08:29:48;;;;;;;0.50;0.50;;;12.90;99.90;;;;;;4943706;28;20519;-81
2023/01/01 08:32:13;;;;;;;0.50;0.50;;;12.90;99.90;;;;;;4948332;28;20075;-80
2023/01/01 08:34:40;;;;;;;0.50;0.50;;;12.90;99.90;;;;;;4956080;28;20049;-80
2023/01/01 08:37:10;;;;;;;0.50;0.50;;;12.90;99.90;;;;;;4949748;28;20440;-78
2023/01/01 08:39:42;;;;;;;0.50;0.50;;;12.90;99.90;;;;;;4948179;28;20864;-79
2023/01/01 08:42:08;;;;;;;0.50;0.50;;;12.90;99.90;;;;;;4952761;28;20080;-80
2023/01/01 08:44:34;;;;;;;0.50;0.50;;;12.80;99.90;;;;;;4951253;28;20049;-81
2023/01/01 08:46:59;;;;;;;0.50;0.50;;;12.90;99.90;;;;;;4948381;28;20056;-79
2023/01/01 08:49:26;;;;;;;0.50;0.50;;;12.90;99.90;;;;;;4944246;28;20057;-81
2023/01/01 08:51:51;;;;;;;0.50;0.50;;;12.80;99.90;;;;;;4941827;28;20049;-80
2023/01/01 08:54:17;;;;;;;0.50;0.50;;;12.80;99.90;;;;;;4940952;28;20060;-80
2023/01/01 08:56:43;;;;;;;0.50;0.50;;;12.70;99.90;;;;;;4945334;28;20060;-80
2023/01/01 08:59:09;;;;;;;0.50;0.50;;;12.80;99.90;;;;;;4948718;28;20511;-79
2023/01/01 09:01:35;;;;;;;0.50;0.50;;;12.70;99.90;;;;;;4946647;28;20103;-79
2023/01/01 09:04:01;;;;;;;0.50;0.50;;;12.70;99.90;;;;;;4944646;28;20467;-80
2023/01/01 09:06:26;;;;;;;0.50;0.50;;;12.70;99.90;;;;;;4936083;28;20221;-80
2023/01/01 09:08:52;;;;;;;0.50;0.50;;;12.70;99.90;;;;;;4946420;28;20045;-79
2023/01/01 09:11:26;;;;;;;0.50;0.50;;;12.70;99.90;;;;;;4943397;28;20058;-80
2023/01/01 09:13:53;;;;;;;0.50;0.50;;;12.70;99.90;;;;;;4931546;28;20107;-81
2023/01/01 09:16:20;;;;;;;0.50;0.50;;;12.60;99.90;;;;;;4959778;28;20463;-80
2023/01/01 09:18:46;;;;;;;0.50;0.50;;;12.60;99.90;;;;;;4947163;28;20045;-80
2023/01/01 09:21:12;;;;;;;0.50;0.50;;;12.60;99.90;;;;;;4946144;28;20599;-79
2023/01/01 09:23:38;;;;;;;0.50;0.50;;;12.50;99.90;;;;;;4947052;28;20459;-79
2023/01/01 09:26:09;;;;;;;0.50;0.50;;;12.50;99.90;;;;;;4943199;28;20638;-79
2023/01/01 09:28:36;;;;;;;0.50;0.50;;;12.60;99.90;;;;;;4966540;28;20049;-78
2023/01/01 09:31:05;;;;;;;0.50;0.50;;;12.60;99.90;;;;;;4964113;28;20599;-81
2023/01/01 09:33:33;;;;;;;0.50;0.50;;;12.60;99.90;;;;;;4962384;28;20049;-81
2023/01/01 09:36:21;;;;;;;0.60;0.60;;;12.70;99.90;;;;;;4928322;28;20383;-79
2023/01/01 09:38:51;;;;;;;0.50;0.50;;;12.70;99.90;;;;;;4938815;28;20057;-80
2023/01/01 09:41:50;;;;;;;0.50;0.50;;;12.80;99.90;;;;;;4952235;28;20212;-81
2023/01/01 09:44:40;;;;;;;0.50;0.50;;;12.80;99.90;;;;;;4938972;28;20145;-79
2023/01/01 09:47:17;;;;;;;0.50;0.50;;;12.80;99.90;;;;;;4957238;28;20452;-80
2023/01/01 09:49:46;;;;;;;0.50;0.50;;;12.90;99.90;;;;;;4939104;28;20116;-80
2023/01/01 09:52:15;;;;;;;0.50;0.50;;;12.90;99.90;;;;;;4938975;28;20063;-79
2023/01/01 09:54:57;;;;;;;0.50;0.50;;;12.90;99.90;;;;;;4940708;28;20049;-80
2023/01/01 09:57:28;;;;;;;0.50;0.50;;;12.90;99.90;;;;;;4940993;28;20056;-79
2023/01/01 09:59:56;;;;;;;0.50;0.50;;;13.00;99.90;;;;;;4944695;28;20055;-80
2023/01/01 10:02:35;;;;;;;0.50;0.50;;;13.00;99.90;;;;;;4947874;28;20087;-80
2023/01/01 10:05:13;;;;;;;0.50;0.50;;;13.00;99.90;;;;;;4943766;28;20053;-82
2023/01/01 10:08:04;;;;;;;0.50;0.50;;;13.10;99.90;;;;;;4942172;28;20395;-80
2023/01/01 10:10:40;;;;;;;0.50;0.50;;;13.10;99.90;;;;;;4942845;28;20114;-82
2023/01/01 10:13:27;;;;;;;0.50;0.50;;;13.20;99.90;;;;;;4937120;28;20433;-79
2023/01/01 10:15:58;;;;;;;0.50;0.50;;;13.10;99.90;;;;;;4949129;28;20053;-80
2023/01/01 10:18:32;;;;;;;0.50;0.50;;;13.00;99.90;;;;;;4942815;28;20064;-79
2023/01/01 10:21:01;;;;;;;;;;;13.00;99.90;;;;;;4939286;28;20053;-81
2023/01/01 10:23:34;;;;;;;0.50;0.50;;;12.90;99.90;;;;;;4941587;28;20113;-80
2023/01/01 10:26:07;;;;;;;0.50;0.50;;;12.80;99.90;;;;;;4942501;28;20076;-81
2023/01/01 10:28:48;;;;;;;0.60;0.60;;;12.80;99.90;;;;;;4935855;28;20077;-80
2023/01/01 10:31:30;;;;;;;0.60;0.60;;;12.80;99.90;;;;;;4940007;28;20219;-80
2023/01/01 10:33:56;;;;;;;0.50;0.50;;;12.80;99.90;;;;;;4947340;28;20486;-80
2023/01/01 10:36:23;;;;;;;0.52;0.52;;;12.80;99.90;;;;;;4933597;28;21030;-80
2023/01/01 10:38:50;;;;;;;0.50;0.50;;;12.80;99.90;;;;;;4921528;28;20061;-80
2023/01/01 10:41:16;;;;;;;0.50;0.50;;;12.80;99.90;;;;;;4932402;28;20098;-80
2023/01/01 10:43:43;;;;;;;0.57;0.57;;;12.80;99.90;;;;;;4942223;28;20245;-80
2023/01/01 10:46:18;;;;;;;0.50;0.50;;;12.80;99.90;;;;;;4940743;28;20056;-80
2023/01/01 10:49:11;;;;;;;0.50;0.50;;;12.80;99.90;;;;;;4947464;28;20253;-80
2023/01/01 10:51:43;;;;;;;0.50;0.50;;;12.80;99.90;;;;;;4941660;28;20933;-79
2023/01/01 10:54:44;;;;;;;0.50;0.50;;;12.80;99.90;;;;;;4949642;28;20160;-79
2023/01/01 10:57:41;;;;;;;0.50;0.50;;;12.80;99.90;;;;;;4918706;28;20176;-81
2023/01/01 11:00:19;;;;;;;0.50;0.50;;;12.80;99.90;;;;;;4946165;28;20588;-79
2023/01/01 11:02:45;;;;;;;0.50;0.50;;;12.70;99.90;;;;;;4946387;28;20056;-78
2023/01/01 11:05:16;;;;;;;0.50;0.50;;;12.60;99.90;;;;;;4954930;28;20080;-78
2023/01/01 11:07:42;;;;;;;0.50;0.50;;;12.60;99.90;;;;;;4950840;28;20064;-79
2023/01/01 11:10:30;;;;;;;0.50;0.50;;;12.60;99.90;;;;;;4951663;28;20054;-80
2023/01/01 11:12:58;;;;;;;0.50;0.50;;;12.70;99.90;;;;;;4947340;28;20080;-79
2023/01/01 11:15:36;;;;;;;0.50;0.50;;;12.70;99.90;;;;;;4952555;28;20051;-79
2023/01/01 11:18:19;;;;;;;0.50;0.50;;;12.80;99.90;;;;;;4948850;28;20414;-80
2023/01/01 11:20:54;;;;;;;0.50;0.50;;;12.90;99.90;;;;;;4957020;28;20075;-79
2023/01/01 11:23:35;;;;;;;0.50;0.50;;;12.90;99.90;;;;;;4953892;28;20045;-80
2023/01/01 11:26:13;;;;;;;0.50;0.50;;;13.00;99.90;;;;;;4948763;28;20128;-80
2023/01/01 11:28:40;;;;;;;0.50;0.50;;;13.00;99.90;;;;;;4946348;28;20076;-80
2023/01/01 11:31:16;;;;;;;0.50;0.50;;;13.00;99.90;;;;;;4930518;28;20076;-81
2023/01/01 11:34:02;;;;;;;0.50;0.50;;;12.90;99.90;;;;;;4952779;28;20060;-80
2023/01/01 11:36:33;;;;;;;0.50;0.50;;;12.80;99.90;;;;;;4964758;28;20053;-80
2023/01/01 11:39:26;;;;;;;0.50;0.50;;;12.80;99.90;;;;;;4950728;28;20064;-80
2023/01/01 11:41:54;;;;;;;0.50;0.50;;;12.80;99.90;;;;;;4947377;28;20080;-81
2023/01/01 11:44:26;;;;;;;0.50;0.50;;;12.90;99.90;;;;;;4942199;28;20052;-81
2023/01/01 11:46:52;;;;;;;0.50;0.50;;;13.00;99.90;;;;;;4951941;28;20055;-82
2023/01/01 11:49:24;;;;;;;0.50;0.50;;;13.00;99.90;;;;;;4950986;28;20107;-82
2023/01/01 11:51:50;;;;;;;0.50;0.50;;;13.00;99.90;;;;;;4950713;28;20253;-81
2023/01/01 11:54:27;;;;;;;0.50;0.50;;;13.10;99.90;;;;;;4957283;28;20050;-80
2023/01/01 11:57:16;;;;;;;0.50;0.50;;;13.00;99.90;;;;;;4938210;28;20045;-81
2023/01/01 11:59:53;;;;;;;0.50;0.50;;;13.00;99.90;;;;;;4952993;28;20068;-81
2023/01/01 12:02:46;;;;;;;0.50;0.50;;;13.00;99.90;;;;;;4960730;28;20686;-82
2023/01/01 12:05:19;;;;;;;0.50;0.50;;;12.90;99.90;;;;;;4948661;28;20054;-80
2023/01/01 12:07:45;;;;;;;0.50;0.50;;;12.90;99.90;;;;;;4943840;28;20076;-81
2023/01/01 12:10:29;;;;;;;0.50;0.50;;;12.90;99.90;;;;;;4952299;28;20116;-81
2023/01/01 12:13:14;;;;;;;0.50;0.50;;;12.90;99.90;;;;;;5001246;28;20052;-80
2023/01/01 12:15:49;;;;;;;0.50;0.50;;;12.90;99.90;;;;;;4982397;28;20511;-79
2023/01/01 12:18:56;;;;;;;0.50;0.50;;;13.20;99.90;;;;;;5001438;28;20048;-80
2023/01/01 12:21:26;;;;;;;0.50;0.50;;;13.00;99.90;;;;;;4960773;28;20040;-80
2023/01/01 12:23:52;;;;;;;0.50;0.50;;;13.00;99.90;;;;;;4967411;28;20041;-81
2023/01/01 12:26:24;;;;;;;0.50;0.50;;;13.10;99.90;;;;;;4953868;28;20089;-81
2023/01/01 12:29:28;;;;;;;0.50;0.50;;;13.10;99.90;;;;;;4946358;28;20048;-81
2023/01/01 12:32:06;;;;;;;0.50;0.50;;;13.10;99.90;;;;;;4925841;28;20049;-81
2023/01/01 12:34:47;;;;;;;0.50;0.50;;;13.10;99.90;;;;;;4947874;28;20053;-81
2023/01/01 12:37:38;;;;;;;0.50;0.50;;;13.00;99.90;;;;;;4946567;28;20050;-81
2023/01/01 12:40:41;;;;;;;0.50;0.50;;;13.00;99.90;;;;;;4945758;28;20061;-80
2023/01/01 12:43:29;;;;;;;0.50;0.50;;;13.00;99.90;;;;;;4945217;28;20494;-81
2023/01/01 12:46:23;;;;;;;0.50;0.50;;;13.00;99.90;;;;;;4950749;28;20064;-81
2023/01/01 12:48:59;;;;;;;0.50;0.50;;;13.00;99.90;;;;;;4951190;28;20841;-79
2023/01/01 12:51:48;;;;;;;0.50;0.50;;;13.00;99.90;;;;;;4951353;28;20049;-79
2023/01/01 12:54:50;;;;;;;0.50;0.50;;;13.00;99.90;;;;;;4946020;28;20056;-80
2023/01/01 12:57:34;;;;;;;0.50;0.50;;;13.10;99.90;;;;;;4946829;28;20985;-80
2023/01/01 13:00:10;;;;;;;0.50;0.50;;;13.00;99.90;;;;;;4942102;28;20059;-81
2023/01/01 13:02:51;;;;;;;0.50;0.50;;;13.00;99.90;;;;;;4948004;28;20041;-81
2023/01/01 13:05:38;;;;;;;0.50;0.50;;;13.10;99.90;;;;;;4949123;28;20044;-81
2023/01/01 13:08:05;;;;;;;0.50;0.50;;;13.10;99.90;;;;;;4956745;28;20041;-80
2023/01/01 13:10:38;;;;;;;0.55;0.55;;;13.00;99.90;;;;;;4941785;28;20053;-80
2023/01/01 13:13:05;;;;;;;0.50;0.50;;;13.00;99.90;;;;;;4946547;28;21035;-81